Time;durP1;ratioP1;P1;durP2;ratioP2;P2;SDS_P1;SDS_P2;PMS_P1;PMS_P2;Temp;Humidity;BMP_temperature;BMP_pressure;BME280_temperature;BME280_humidity;BME280_pressure;Samples;Min_cycle;Max_cycle;Signal;HPM_P1;HPM_P2
2024/02/10 00:00:16;;;;;;;0.50;0.50;;;;;;;7.97;100.00;94296.94;29396;213;63009;-66
2024/02/10 00:00:49;;;;;;;0.50;0.50;;;;;;;7.99;100.00;94299.31;29396;226;63005;-54
2024/02/10 00:01:24;;;;;;;0.50;0.50;;;;;;;8.00;100.00;94296.25;29396;294;63009;-55
2024/02/10 00:01:56;;;;;;;0.50;0.50;;;;;;;8.01;100.00;94300.53;29396;243;63005;-66
2024/02/10 00:02:28;;;;;;;0.50;0.50;;;;;;;8.02;100.00;94306.72;29396;406;63018;-54
2024/02/10 00:03:00;;;;;;;0.60;0.60;;;;;;;8.02;100.00;94302.13;29396;226;63009;-55
2024/02/10 00:03:35;;;;;;;0.50;0.50;;;;;;;8.02;100.00;94302.13;29396;230;63009;-54
2024/02/10 00:04:06;;;;;;;0.50;0.50;;;;;;;8.00;100.00;94301.66;29395;250;64009;-54
2024/02/10 00:04:38;;;;;;;0.50;0.50;;;;;;;8.02;100.00;94310.22;29396;249;63009;-55
2024/02/10 00:05:13;;;;;;;0.50;0.50;;;;;;;8.01;100.00;94308.66;29396;254;63004;-55
2024/02/10 00:05:45;;;;;;;0.50;0.50;;;;;;;8.01;100.00;94305.94;29396;259;63009;-66
2024/02/10 00:06:16;;;;;;;0.60;0.60;;;;;;;8.00;100.00;94308.97;29396;313;63004;-55
2024/02/10 00:06:47;;;;;;;0.50;0.50;;;;;;;7.99;100.00;94299.31;29395;383;64013;-68
2024/02/10 00:07:22;;;;;;;0.50;0.50;;;;;;;7.99;100.00;94308.19;29396;245;63004;-55
2024/02/10 00:07:55;;;;;;;0.50;0.50;;;;;;;8.01;100.00;94305.94;29396;199;63009;-55
2024/02/10 00:08:27;;;;;;;0.55;0.55;;;;;;;8.00;100.00;94304.38;29396;337;63005;-66
2024/02/10 00:09:06;;;;;;;0.50;0.50;;;;;;;8.02;100.00;94304.81;29396;198;63009;-55
2024/02/10 00:09:39;;;;;;;0.50;0.50;;;;;;;8.03;100.00;94309.09;29396;232;63005;-55
2024/02/10 00:10:10;;;;;;;0.60;0.60;;;;;;;8.03;100.00;94311.78;29396;251;63009;-54
2024/02/10 00:10:42;;;;;;;0.50;0.50;;;;;;;8.02;100.00;94304.81;29395;212;64009;-67
2024/02/10 00:11:13;;;;;;;0.50;0.50;;;;;;;8.02;100.00;94312.91;29396;260;63009;-54
2024/02/10 00:11:45;;;;;;;0.50;0.50;;;;;;;8.01;100.00;94308.66;29396;226;63004;-55
2024/02/10 00:12:18;;;;;;;0.50;0.50;;;;;;;8.00;100.00;94307.06;29396;266;63009;-56
2024/02/10 00:12:59;;;;;;;0.50;0.50;;;;;;;8.01;100.00;94302.47;29396;242;63005;-53
2024/02/10 00:13:39;;;;;;;;;;;;;;;8.02;100.00;94310.22;29996;983;6004;-54
2024/02/10 00:14:17;;;;;;;0.50;0.50;;;;;;;8.04;100.00;94305.28;29400;247;63008;-56
2024/02/10 00:14:50;;;;;;;0.50;0.50;;;;;;;8.06;100.00;94310.34;29396;226;63004;-55
2024/02/10 00:15:23;;;;;;;0.50;0.50;;;;;;;8.06;100.00;94315.72;29396;240;63009;-55
2024/02/10 00:15:56;;;;;;;0.50;0.50;;;;;;;8.06;100.00;94310.34;29395;271;64009;-55
2024/02/10 00:16:28;;;;;;;0.50;0.50;;;;;;;8.03;100.00;94306.41;29396;259;63009;-57
2024/02/10 00:16:59;;;;;;;0.50;0.50;;;;;;;8.02;100.00;94304.81;29396;203;63005;-66
2024/02/10 00:17:31;;;;;;;0.50;0.50;;;;;;;8.01;100.00;94305.94;29396;285;63009;-55
2024/02/10 00:18:05;;;;;;;0.50;0.50;;;;;;;8.01;100.00;94314.03;29396;241;63005;-55
2024/02/10 00:18:37;;;;;;;0.60;0.60;;;;;;;8.00;100.00;94312.47;29396;459;63009;-54
2024/02/10 00:19:09;;;;;;;0.60;0.60;;;;;;;8.00;100.00;94311.69;29396;214;63005;-55
2024/02/10 00:19:46;;;;;;;0.50;0.50;;;;;;;7.99;100.00;94305.50;29396;300;63009;-54
2024/02/10 00:20:20;;;;;;;0.50;0.50;;;;;;;7.99;100.00;94313.59;29396;270;63004;-67
2024/02/10 00:20:52;;;;;;;0.50;0.50;;;;;;;7.99;100.00;94305.50;29396;426;63026;-55
2024/02/10 00:21:24;;;;;;;0.43;0.43;;;;;;;7.99;100.00;94316.28;29395;460;64009;-54
2024/02/10 00:21:56;;;;;;;0.50;0.50;;;;;;;7.98;100.00;94305.84;29396;211;63008;-55
2024/02/10 00:22:27;;;;;;;0.60;0.60;;;;;;;7.97;100.00;94307.75;29396;483;63004;-54
2024/02/10 00:22:58;;;;;;;0.50;0.50;;;;;;;7.97;100.00;94313.16;29396;505;63009;-55
2024/02/10 00:23:30;;;;;;;0.50;0.50;;;;;;;7.96;100.00;94311.59;29396;483;63005;-68
2024/02/10 00:24:02;;;;;;;0.50;0.50;;;;;;;7.96;100.00;94310.81;29396;202;63021;-55
2024/02/10 00:24:34;;;;;;;0.60;0.60;;;;;;;7.95;100.00;94315.44;29396;222;63005;-67
2024/02/10 00:25:06;;;;;;;0.50;0.50;;;;;;;7.95;100.00;94315.44;29396;247;63009;-55
2024/02/10 00:25:42;;;;;;;0.50;0.50;;;;;;;7.95;100.00;94314.63;29396;197;63005;-54
2024/02/10 00:26:21;;;;;;;0.50;0.50;;;;;;;7.93;100.00;94317.66;29396;229;63009;-55
2024/02/10 00:26:52;;;;;;;0.50;0.50;;;;;;;7.93;100.00;94312.28;29395;209;64009;-55
2024/02/10 00:27:23;;;;;;;0.50;0.50;;;;;;;7.91;100.00;94311.81;29396;274;63009;-55
2024/02/10 00:27:55;;;;;;;0.50;0.50;;;;;;;7.92;100.00;94313.41;29396;215;63004;-54
2024/02/10 00:28:26;;;;;;;0.50;0.50;;;;;;;7.92;100.00;94316.09;29396;225;63009;-55
2024/02/10 00:28:57;;;;;;;0.50;0.50;;;;;;;7.93;100.00;94311.50;29396;272;63004;-54
2024/02/10 00:29:29;;;;;;;0.50;0.50;;;;;;;7.95;100.00;94310.03;29396;311;63015;-55
2024/02/10 00:30:05;;;;;;;0.50;0.50;;;;;;;7.95;100.00;94303.84;29396;227;63004;-55
2024/02/10 00:30:37;;;;;;;0.50;0.50;;;;;;;7.97;100.00;94313.16;29396;236;63009;-55
2024/02/10 00:31:12;;;;;;;0.50;0.50;;;;;;;7.97;100.00;94313.16;29396;221;63005;-55
2024/02/10 00:31:43;;;;;;;0.50;0.50;;;;;;;7.99;100.00;94310.91;29396;197;63009;-67
2024/02/10 00:32:21;;;;;;;0.50;0.50;;;;;;;7.99;100.00;94308.19;29396;460;63009;-55
2024/02/10 00:32:52;;;;;;;0.50;0.50;;;;;;;7.99;100.00;94310.09;29395;216;64009;-54
2024/02/10 00:33:24;;;;;;;0.50;0.50;;;;;;;7.99;100.00;94307.41;29396;342;63005;-55
2024/02/10 00:33:57;;;;;;;0.50;0.50;;;;;;;7.99;100.00;94307.41;29396;413;63009;-67
2024/02/10 00:34:33;;;;;;;0.50;0.50;;;;;;;8.01;100.00;94307.84;29396;226;63004;-54
2024/02/10 00:35:06;;;;;;;0.50;0.50;;;;;;;8.00;100.00;94312.47;29396;229;63009;-55
2024/02/10 00:35:38;;;;;;;0.60;0.60;;;;;;;8.02;100.00;94312.12;29396;245;63004;-55
2024/02/10 00:36:09;;;;;;;0.50;0.50;;;;;;;8.02;100.00;94315.63;29396;248;63009;-57
2024/02/10 00:36:41;;;;;;;0.50;0.50;;;;;;;8.02;100.00;94307.53;29396;204;63004;-55
2024/02/10 00:37:16;;;;;;;0.50;0.50;;;;;;;8.02;100.00;94304.81;29396;221;63008;-55
2024/02/10 00:37:48;;;;;;;0.50;0.50;;;;;;;8.03;100.00;94311.00;29395;217;64009;-54
2024/02/10 00:38:21;;;;;;;0.50;0.50;;;;;;;8.02;100.00;94304.81;29396;389;63009;-54
2024/02/10 00:38:52;;;;;;;0.50;0.50;;;;;;;8.02;100.00;94310.22;29396;211;63005;-66
2024/02/10 00:39:23;;;;;;;0.50;0.50;;;;;;;8.03;100.00;94311.78;29396;302;63009;-67
2024/02/10 00:39:54;;;;;;;0.50;0.50;;;;;;;8.02;100.00;94310.22;29396;199;63005;-66
2024/02/10 00:40:25;;;;;;;0.50;0.50;;;;;;;8.02;100.00;94302.13;29396;207;63009;-55
2024/02/10 00:41:03;;;;;;;0.50;0.50;;;;;;;8.02;100.00;94309.44;29396;231;63005;-67
2024/02/10 00:41:34;;;;;;;0.50;0.50;;;;;;;8.02;100.00;94299.41;29396;413;63009;-54
2024/02/10 00:42:06;;;;;;;0.60;0.60;;;;;;;8.02;100.00;94304.03;29396;266;63012;-54
2024/02/10 00:42:38;;;;;;;0.55;0.55;;;;;;;8.02;100.00;94310.22;29396;198;63021;-54
2024/02/10 00:43:12;;;;;;;0.50;0.50;;;;;;;8.01;100.00;94303.25;29395;256;64009;-57
2024/02/10 00:43:45;;;;;;;0.50;0.50;;;;;;;7.98;100.00;94298.50;29396;371;63017;-55
2024/02/10 00:44:17;;;;;;;0.50;0.50;;;;;;;8.01;100.00;94303.25;29396;233;63015;-55
2024/02/10 00:44:51;;;;;;;0.50;0.50;;;;;;;8.00;100.00;94296.25;29396;233;63008;-55
2024/02/10 00:45:24;;;;;;;0.50;0.50;;;;;;;8.00;100.00;94301.66;29396;242;63005;-54
2024/02/10 00:45:57;;;;;;;0.50;0.50;;;;;;;8.00;100.00;94298.97;29396;305;63009;-55
2024/02/10 00:46:31;;;;;;;0.60;0.60;;;;;;;8.01;100.00;94302.47;29396;289;63005;-67
2024/02/10 00:47:12;;;;;;;0.50;0.50;;;;;;;8.00;100.00;94304.38;29396;202;63009;-54
2024/02/10 00:47:45;;;;;;;0.60;0.60;;;;;;;8.00;100.00;94301.66;29418;216;63005;-54
2024/02/10 00:48:17;;;;;;;0.50;0.50;;;;;;;8.01;100.00;94302.47;29395;342;64013;-55
2024/02/10 00:48:49;;;;;;;0.50;0.50;;;;;;;8.00;100.00;94303.59;29397;200;63004;-54
2024/02/10 00:49:24;;;;;;;3.92;3.72;;;;;;;7.99;100.00;94305.50;29397;208;63024;-55
2024/02/10 00:50:01;;;;;;;0.60;0.60;;;;;;;7.98;100.00;94303.91;29397;209;63004;-54
2024/02/10 00:50:32;;;;;;;0.50;0.50;;;;;;;8.00;100.00;94307.06;29397;252;63009;-54
2024/02/10 00:51:05;;;;;;;0.50;0.50;;;;;;;7.99;100.00;94305.50;29397;253;63004;-55
2024/02/10 00:51:36;;;;;;;0.50;0.50;;;;;;;7.99;100.00;94305.50;29395;223;63009;-54
2024/02/10 00:52:18;;;;;;;0.50;0.50;;;;;;;7.99;100.00;94308.19;29396;197;63010;-56
2024/02/10 00:52:49;;;;;;;0.50;0.50;;;;;;;7.99;100.00;94300.09;29395;198;63009;-54
2024/02/10 00:53:21;;;;;;;0.50;0.50;;;;;;;7.99;100.00;94300.09;29394;260;64009;-55
2024/02/10 00:53:53;;;;;;;0.50;0.50;;;;;;;8.01;100.00;94302.47;29395;340;63009;-55
2024/02/10 00:54:29;;;;;;;0.50;0.50;;;;;;;8.00;100.00;94303.59;29395;276;63005;-55
2024/02/10 00:55:01;;;;;;;0.50;0.50;;;;;;;7.99;100.00;94300.09;29395;327;63009;-56
2024/02/10 00:55:32;;;;;;;0.50;0.50;;;;;;;8.00;100.00;94307.06;29395;356;63012;-54
2024/02/10 00:56:04;;;;;;;0.50;0.50;;;;;;;8.00;100.00;94300.87;29395;197;63016;-54
2024/02/10 00:56:36;;;;;;;0.50;0.50;;;;;;;7.98;100.00;94306.63;29395;312;63015;-54
2024/02/10 00:57:10;;;;;;;0.50;0.50;;;;;;;8.00;100.00;94307.06;29395;478;63012;-55
2024/02/10 00:57:42;;;;;;;0.50;0.50;;;;;;;8.00;100.00;94304.38;29395;197;63004;-54
2024/02/10 00:58:14;;;;;;;0.50;0.50;;;;;;;8.01;100.00;94310.56;29395;257;63009;-55
2024/02/10 00:58:48;;;;;;;0.50;0.50;;;;;;;8.00;100.00;94309.78;29393;278;64008;-55
2024/02/10 00:59:21;;;;;;;0.50;0.50;;;;;;;8.00;100.00;94301.66;29395;241;63008;-55
2024/02/10 00:59:53;;;;;;;0.40;0.40;;;;;;;8.02;100.00;94312.12;29394;234;64005;-67
2024/02/10 01:00:24;;;;;;;0.50;0.50;;;;;;;8.01;100.00;94300.53;29395;210;63009;-54
2024/02/10 01:00:56;;;;;;;0.50;0.50;;;;;;;7.99;100.00;94297.38;29395;294;63005;-54
2024/02/10 01:01:31;;;;;;;0.50;0.50;;;;;;;8.01;100.00;94305.16;29395;328;63009;-54
2024/02/10 01:02:05;;;;;;;0.50;0.50;;;;;;;8.00;100.00;94306.28;29395;252;63005;-55
2024/02/10 01:02:45;;;;;;;0.60;0.60;;;;;;;8.00;100.00;94300.87;29395;423;63009;-54
2024/02/10 01:03:16;;;;;;;0.50;0.50;;;;;;;8.00;100.00;94298.97;29395;263;63005;-54
2024/02/10 01:03:49;;;;;;;0.50;0.50;;;;;;;8.00;100.00;94304.38;29393;203;64013;-66
2024/02/10 01:04:21;;;;;;;0.52;0.52;;;;;;;7.99;100.00;94305.50;29395;396;63004;-54
2024/02/10 01:04:54;;;;;;;0.50;0.50;;;;;;;7.99;100.00;94302.78;29395;434;63009;-54
2024/02/10 01:05:25;;;;;;;0.50;0.50;;;;;;;7.99;100.00;94300.09;29395;302;63004;-67
2024/02/10 01:05:57;;;;;;;0.50;0.50;;;;;;;7.98;100.00;94298.50;29395;256;63012;-54
2024/02/10 01:06:28;;;;;;;0.55;0.55;;;;;;;7.99;100.00;94302.78;29395;255;63004;-54
2024/02/10 01:07:01;;;;;;;0.50;0.50;;;;;;;7.99;100.00;94299.31;29395;215;63008;-55
2024/02/10 01:07:34;;;;;;;0.50;0.50;;;;;;;7.98;100.00;94306.63;29395;215;63005;-55
2024/02/10 01:08:06;;;;;;;0.50;0.50;;;;;;;7.98;100.00;94303.91;29393;199;64014;-54
2024/02/10 01:08:40;;;;;;;0.50;0.50;;;;;;;7.98;100.00;94303.91;29395;232;63010;-55
2024/02/10 01:09:14;;;;;;;0.50;0.50;;;;;;;7.98;100.00;94298.50;29395;202;63009;-55
2024/02/10 01:09:46;;;;;;;31.15;29.08;;;;;;;7.98;100.00;94303.12;29385;339;65005;-53
2024/02/10 01:10:19;;;;;;;0.50;0.50;;;;;;;7.98;100.00;94293.13;29395;197;63009;-55
2024/02/10 01:10:52;;;;;;;0.55;0.55;;;;;;;7.98;100.00;94295.81;29395;273;63005;-54
2024/02/10 01:11:24;;;;;;;0.50;0.50;;;;;;;7.97;100.00;94291.53;29395;296;63009;-55
2024/02/10 01:11:55;;;;;;;0.50;0.50;;;;;;;7.96;100.00;94292.69;29395;197;63004;-54
2024/02/10 01:12:27;;;;;;;0.60;0.60;;;;;;;7.97;100.00;94290.78;29395;239;63009;-55
2024/02/10 01:13:03;;;;;;;0.50;0.50;;;;;;;7.96;100.00;94287.28;29395;239;63004;-55
2024/02/10 01:13:34;;;;;;;0.50;0.50;;;;;;;7.96;100.00;94287.28;29393;281;64013;-55
2024/02/10 01:14:08;;;;;;;0.60;0.60;;;;;;;7.97;100.00;94286.16;29395;355;63004;-54
2024/02/10 01:14:40;;;;;;;0.50;0.50;;;;;;;7.97;100.00;94286.16;29395;241;63020;-67
2024/02/10 01:15:12;;;;;;;0.50;0.50;;;;;;;7.97;100.00;94286.16;29395;336;63011;-54
2024/02/10 01:15:44;;;;;;;0.50;0.50;;;;;;;7.96;100.00;94284.59;29393;252;64014;-54
2024/02/10 01:16:17;;;;;;;0.50;0.50;;;;;;;7.96;100.00;94292.69;29395;281;63018;-54
2024/02/10 01:16:49;;;;;;;0.50;0.50;;;;;;;7.95;100.00;94288.41;29395;272;63009;-54
2024/02/10 01:17:20;;;;;;;0.50;0.50;;;;;;;7.96;100.00;94287.28;29395;239;63014;-54
2024/02/10 01:17:52;;;;;;;0.50;0.50;;;;;;;7.95;100.00;94288.41;29395;202;63009;-54
2024/02/10 01:18:24;;;;;;;0.50;0.50;;;;;;;7.97;100.00;94291.53;29395;229;63005;-54
2024/02/10 01:18:55;;;;;;;0.50;0.50;;;;;;;7.96;100.00;94287.28;29395;239;63009;-55
2024/02/10 01:19:27;;;;;;;0.50;0.50;;;;;;;7.96;100.00;94283.81;29395;250;63004;-54
2024/02/10 01:19:59;;;;;;;0.50;0.50;;;;;;;7.95;100.00;94288.41;29395;336;63024;-54
2024/02/10 01:20:31;;;;;;;0.52;0.52;;;;;;;7.97;100.00;94279.97;29395;227;63004;-68
2024/02/10 01:21:04;;;;;;;0.50;0.50;;;;;;;7.97;100.00;94285.37;29393;264;64013;-55
2024/02/10 01:21:39;;;;;;;0.50;0.50;;;;;;;7.96;100.00;94284.59;29395;227;63004;-54
2024/02/10 01:22:11;;;;;;;0.60;0.60;;;;;;;7.98;100.00;94287.72;29395;241;63009;-66
2024/02/10 01:22:45;;;;;;;0.50;0.50;;;;;;;7.96;100.00;94284.59;29395;321;63005;-55
2024/02/10 01:23:16;;;;;;;0.50;0.50;;;;;;;7.97;100.00;94285.37;29395;303;63027;-55
2024/02/10 01:23:49;;;;;;;0.60;0.60;;;;;;;7.98;100.00;94278.81;29395;427;63005;-55
2024/02/10 01:24:22;;;;;;;0.50;0.50;;;;;;;7.98;100.00;94282.31;29394;233;64013;-55
2024/02/10 01:24:56;;;;;;;0.50;0.50;;;;;;;7.98;100.00;94282.31;29395;260;63005;-54
2024/02/10 01:25:30;;;;;;;0.50;0.50;;;;;;;7.99;100.00;94283.09;29395;231;63009;-55
2024/02/10 01:26:01;;;;;;;0.50;0.50;;;;;;;7.99;100.00;94281.19;29395;373;63005;-55
2024/02/10 01:26:35;;;;;;;0.50;0.50;;;;;;;7.99;100.00;94285.81;29395;230;63009;-56
2024/02/10 01:27:09;;;;;;;0.50;0.50;;;;;;;7.99;100.00;94283.87;29395;367;63004;-66
2024/02/10 01:27:44;;;;;;;0.55;0.55;;;;;;;7.97;100.00;94278.03;29395;226;63009;-54
2024/02/10 01:28:15;;;;;;;0.50;0.50;;;;;;;7.96;100.00;94281.91;29395;256;63004;-54
2024/02/10 01:28:47;;;;;;;0.55;0.55;;;;;;;7.96;100.00;94268.41;29395;210;63009;-55
2024/02/10 01:29:20;;;;;;;0.50;0.50;;;;;;;7.96;100.00;94273.78;29395;361;63004;-67
2024/02/10 01:29:52;;;;;;;0.50;0.50;;;;;;;7.95;100.00;94277.63;29393;202;64014;-55
2024/02/10 01:30:26;;;;;;;0.50;0.50;;;;;;;7.96;100.00;94273.00;29395;257;63005;-54
2024/02/10 01:30:58;;;;;;;0.50;0.50;;;;;;;7.96;100.00;94273.78;29395;346;63009;-55
2024/02/10 01:31:31;;;;;;;0.50;0.50;;;;;;;7.96;100.00;94276.50;29395;212;63005;-55
2024/02/10 01:32:05;;;;;;;0.50;0.50;;;;;;;7.96;100.00;94273.78;29395;534;63009;-54
2024/02/10 01:32:37;;;;;;;1.33;1.25;;;;;;;7.95;100.00;94272.22;29395;261;63005;-54
2024/02/10 01:33:09;;;;;;;0.50;0.50;;;;;;;7.95;100.00;94266.81;29395;332;63020;-54
2024/02/10 01:33:44;;;;;;;0.50;0.50;;;;;;;7.95;100.00;94272.22;29395;244;63005;-54
2024/02/10 01:34:15;;;;;;;0.50;0.50;;;;;;;7.96;100.00;94279.19;29395;205;63009;-54
2024/02/10 01:34:48;;;;;;;0.50;0.50;;;;;;;7.94;100.00;94265.25;29395;279;63004;-55
2024/02/10 01:35:19;;;;;;;0.50;0.50;;;;;;;7.96;100.00;94273.78;29393;242;64013;-55
2024/02/10 01:35:51;;;;;;;0.50;0.50;;;;;;;7.95;100.00;94272.22;29395;225;63004;-55
2024/02/10 01:36:23;;;;;;;0.50;0.50;;;;;;;7.94;100.00;94267.94;29395;198;63008;-55
2024/02/10 01:36:58;;;;;;;0.50;0.50;;;;;;;7.95;100.00;94266.81;29395;217;63004;-55
2024/02/10 01:37:30;;;;;;;0.50;0.50;;;;;;;7.94;100.00;94269.84;29395;354;63009;-55
2024/02/10 01:38:02;;;;;;;0.50;0.50;;;;;;;7.94;100.00;94264.47;29395;409;63005;-54
2024/02/10 01:38:37;;;;;;;0.50;0.50;;;;;;;7.94;100.00;94270.66;29395;252;63009;-54
2024/02/10 01:39:09;;;;;;;0.50;0.50;;;;;;;7.94;100.00;94270.66;29395;383;63005;-54
2024/02/10 01:39:40;;;;;;;0.50;0.50;;;;;;;7.95;100.00;94258.72;29395;242;63009;-66
2024/02/10 01:40:12;;;;;;;0.50;0.50;;;;;;;7.94;100.00;94262.53;29395;198;63011;-55
2024/02/10 01:40:43;;;;;;;0.50;0.50;;;;;;;7.94;100.00;94264.47;29393;218;64013;-55
2024/02/10 01:41:15;;;;;;;0.50;0.50;;;;;;;7.93;100.00;94269.06;29395;244;63005;-55
2024/02/10 01:41:46;;;;;;;0.50;0.50;;;;;;;7.91;100.00;94265.94;29395;218;63023;-67
2024/02/10 01:42:37;;;;;;;0.50;0.50;;;;;;;7.92;100.00;94264.81;29395;224;63004;-54
2024/02/10 01:43:08;;;;;;;0.50;0.50;;;;;;;7.94;100.00;94261.75;29377;211;125009;-55
2024/02/10 01:43:41;;;;;;;0.50;0.50;;;;;;;7.94;100.00;94264.47;29395;197;63004;-55
2024/02/10 01:44:18;;;;;;;0.50;0.50;;;;;;;7.94;100.00;94250.97;29395;405;63008;-54
2024/02/10 01:44:50;;;;;;;0.50;0.50;;;;;;;7.94;100.00;94249.03;29395;226;63005;-55
2024/02/10 01:45:22;;;;;;;0.50;0.50;;;;;;;7.95;100.00;94260.63;29395;314;63009;-55
2024/02/10 01:45:55;;;;;;;0.50;0.50;;;;;;;7.93;100.00;94258.28;29394;236;64009;-54
2024/02/10 01:46:27;;;;;;;0.50;0.50;;;;;;;7.92;100.00;94262.09;29395;219;63009;-54
2024/02/10 01:47:01;;;;;;;0.50;0.50;;;;;;;7.92;100.00;94261.31;29395;271;63005;-55
2024/02/10 01:47:34;;;;;;;0.50;0.50;;;;;;;7.92;100.00;94255.91;29395;287;63009;-55
2024/02/10 01:48:08;;;;;;;0.60;0.60;;;;;;;7.92;100.00;94255.91;29395;222;63005;-55
2024/02/10 01:48:41;;;;;;;0.50;0.50;;;;;;;7.92;100.00;94251.28;29395;232;63009;-54
2024/02/10 01:49:13;;;;;;;0.57;0.57;;;;;;;7.91;100.00;94255.13;29395;532;63004;-54
2024/02/10 01:49:45;;;;;;;0.50;0.50;;;;;;;7.92;100.00;94251.28;29395;264;63009;-54
2024/02/10 01:50:16;;;;;;;0.50;0.50;;;;;;;7.92;100.00;94245.13;29395;196;63004;-54
2024/02/10 01:50:48;;;;;;;0.50;0.50;;;;;;;7.92;100.00;94254.00;29395;228;63004;-55
2024/02/10 01:51:23;;;;;;;0.50;0.50;;;;;;;7.91;100.00;94255.13;29394;249;64008;-55
2024/02/10 01:51:57;;;;;;;0.50;0.50;;;;;;;7.91;100.00;94251.63;29395;201;63008;-54
2024/02/10 01:52:28;;;;;;;0.50;0.50;;;;;;;7.90;100.00;94253.56;29395;373;63008;-55
2024/02/10 01:53:00;;;;;;;0.50;0.50;;;;;;;7.91;100.00;94255.13;29395;338;63009;-54
2024/02/10 01:53:32;;;;;;;0.50;0.50;;;;;;;7.90;100.00;94253.56;29395;251;63005;-55
2024/02/10 01:54:06;;;;;;;0.50;0.50;;;;;;;7.91;100.00;94249.72;29395;198;63009;-55
2024/02/10 01:54:39;;;;;;;0.50;0.50;;;;;;;7.91;100.00;94249.72;29395;208;63005;-55
2024/02/10 01:55:11;;;;;;;0.50;0.50;;;;;;;7.92;100.00;94247.81;29395;263;63009;-55
2024/02/10 01:55:43;;;;;;;0.50;0.50;;;;;;;7.92;100.00;94250.50;29395;212;63004;-55
2024/02/10 01:56:18;;;;;;;0.50;0.50;;;;;;;7.91;100.00;94244.31;29395;196;63009;-55
2024/02/10 01:56:53;;;;;;;0.50;0.50;;;;;;;7.92;100.00;94245.91;29394;247;64009;-54
2024/02/10 01:57:24;;;;;;;0.50;0.50;;;;;;;7.91;100.00;94249.72;29395;348;63009;-55
2024/02/10 01:58:03;;;;;;;0.50;0.50;;;;;;;7.92;100.00;94245.13;29395;317;63004;-55
2024/02/10 01:58:35;;;;;;;0.50;0.50;;;;;;;7.92;100.00;94245.13;29395;389;63008;-54
2024/02/10 01:59:07;;;;;;;0.50;0.50;;;;;;;7.93;100.00;94236.69;29395;203;63005;-55
2024/02/10 01:59:40;;;;;;;0.50;0.50;;;;;;;7.93;100.00;94244.00;29395;241;63009;-54
2024/02/10 02:00:17;;;;;;;0.50;0.50;;;;;;;7.94;100.00;94243.66;29395;272;63005;-54
2024/02/10 02:00:49;;;;;;;0.50;0.50;;;;;;;7.93;100.00;94239.37;29395;395;63009;-55
2024/02/10 02:01:21;;;;;;;0.50;0.50;;;;;;;7.93;100.00;94242.06;29395;491;63005;-55
2024/02/10 02:01:55;;;;;;;0.50;0.50;;;;;;;7.94;100.00;94238.25;29394;343;64013;-55
2024/02/10 02:02:30;;;;;;;0.50;0.50;;;;;;;7.94;100.00;94238.25;29395;334;63005;-54
2024/02/10 02:03:03;;;;;;;0.50;0.50;;;;;;;7.96;100.00;94236.00;29395;267;63009;-55
2024/02/10 02:03:34;;;;;;;0.50;0.50;;;;;;;7.98;100.00;94231.00;29395;260;63004;-54
2024/02/10 02:04:09;;;;;;;0.50;0.50;;;;;;;7.99;100.00;94237.19;29395;351;63009;-55
2024/02/10 02:04:43;;;;;;;0.50;0.50;;;;;;;7.99;100.00;94238.00;29395;198;63004;-55
2024/02/10 02:05:15;;;;;;;0.50;0.50;;;;;;;7.98;100.00;94231.00;29395;425;63009;-55
2024/02/10 02:05:47;;;;;;;0.50;0.50;;;;;;;8.00;100.00;94231.47;29395;227;63004;-55
2024/02/10 02:06:19;;;;;;;0.50;0.50;;;;;;;8.00;100.00;94231.47;29395;222;63008;-54
2024/02/10 02:06:50;;;;;;;0.52;0.52;;;;;;;8.01;100.00;94238.44;29395;275;63005;-54
2024/02/10 02:07:22;;;;;;;0.50;0.50;;;;;;;8.01;100.00;94238.44;29394;235;64014;-55
2024/02/10 02:07:58;;;;;;;0.60;0.60;;;;;;;8.01;100.00;94230.34;29395;237;63005;-55
2024/02/10 02:08:33;;;;;;;0.50;0.50;;;;;;;8.02;100.00;94236.53;29395;278;63009;-54
2024/02/10 02:09:05;;;;;;;0.50;0.50;;;;;;;8.02;100.00;94231.13;29395;233;63005;-54
2024/02/10 02:09:38;;;;;;;0.50;0.50;;;;;;;8.02;100.00;94240.00;29395;255;63009;-55
2024/02/10 02:10:10;;;;;;;0.50;0.50;;;;;;;8.02;100.00;94229.22;29395;199;63005;-54
2024/02/10 02:10:41;;;;;;;0.50;0.50;;;;;;;8.01;100.00;94233.03;29395;235;63009;-66
2024/02/10 02:11:15;;;;;;;0.50;0.50;;;;;;;8.03;100.00;94230.00;29395;253;63004;-54
2024/02/10 02:11:49;;;;;;;0.50;0.50;;;;;;;8.02;100.00;94228.41;29395;381;63009;-66
2024/02/10 02:12:24;;;;;;;0.60;0.60;;;;;;;8.05;100.00;94228.53;29395;362;63004;-54
2024/02/10 02:12:57;;;;;;;0.60;0.60;;;;;;;8.04;100.00;94224.25;29394;242;64013;-54
2024/02/10 02:13:29;;;;;;;0.60;0.60;;;;;;;8.04;100.00;94226.94;29395;292;63004;-65
2024/02/10 02:14:01;;;;;;;0.50;0.50;;;;;;;8.05;100.00;94217.72;29395;202;63008;-55
2024/02/10 02:14:36;;;;;;;0.50;0.50;;;;;;;8.05;100.00;94223.13;29395;271;63005;-55
2024/02/10 02:15:08;;;;;;;0.50;0.50;;;;;;;8.06;100.00;94219.31;29395;203;63009;-65
2024/02/10 02:15:39;;;;;;;0.50;0.50;;;;;;;8.06;100.00;94221.22;29395;225;63016;-55
2024/02/10 02:16:11;;;;;;;0.50;0.50;;;;;;;8.06;100.00;94219.31;29395;230;63005;-66
2024/02/10 02:16:48;;;;;;;0.50;0.50;;;;;;;8.07;100.00;94215.47;29395;391;63005;-55
2024/02/10 02:17:20;;;;;;;0.50;0.50;;;;;;;8.11;100.00;94220.19;29395;256;63009;-55
2024/02/10 02:17:51;;;;;;;0.50;0.50;;;;;;;8.12;100.00;94221.78;29395;340;63005;-54
2024/02/10 02:18:23;;;;;;;0.50;0.50;;;;;;;8.13;100.00;94217.94;29394;258;64013;-55
2024/02/10 02:18:57;;;;;;;0.50;0.50;;;;;;;8.13;100.00;94217.94;29395;231;63009;-54
2024/02/10 02:19:29;;;;;;;0.60;0.60;;;;;;;8.12;100.00;94217.16;29394;277;64009;-54
2024/02/10 02:20:01;;;;;;;0.50;0.50;;;;;;;8.12;100.00;94219.06;29395;461;63004;-54
2024/02/10 02:20:32;;;;;;;0.50;0.50;;;;;;;8.12;100.00;94210.97;29395;223;63013;-55
2024/02/10 02:21:06;;;;;;;0.50;0.50;;;;;;;8.12;100.00;94210.97;29395;330;63004;-54
2024/02/10 02:21:39;;;;;;;0.50;0.50;;;;;;;8.13;100.00;94217.94;29395;196;63008;-65
2024/02/10 02:22:10;;;;;;;0.55;0.55;;;;;;;8.13;100.00;94218.72;29395;253;63005;-55
2024/02/10 02:22:53;;;;;;;0.60;0.60;;;;;;;8.13;100.00;94217.94;29395;354;63016;-54
2024/02/10 02:23:24;;;;;;;0.50;0.50;;;;;;;8.13;100.00;94212.53;29394;229;64009;-55
2024/02/10 02:23:58;;;;;;;0.50;0.50;;;;;;;8.08;100.00;94208.94;29395;245;63009;-55
2024/02/10 02:24:31;;;;;;;0.50;0.50;;;;;;;8.11;100.00;94209.37;29395;204;63008;-55
2024/02/10 02:25:03;;;;;;;0.50;0.50;;;;;;;8.11;100.00;94214.78;29395;202;63009;-55
2024/02/10 02:25:36;;;;;;;0.50;0.50;;;;;;;8.07;100.00;94212.78;29395;209;63005;-56
2024/02/10 02:26:08;;;;;;;0.60;0.60;;;;;;;8.11;100.00;94209.37;29395;213;63009;-66
2024/02/10 02:26:41;;;;;;;0.47;0.47;;;;;;;8.12;100.00;94213.66;29395;230;63004;-55
2024/02/10 02:27:13;;;;;;;0.50;0.50;;;;;;;8.12;100.00;94216.37;29395;214;63009;-55
2024/02/10 02:27:44;;;;;;;0.60;0.60;;;;;;;8.12;100.00;94208.25;29395;197;63007;-55
2024/02/10 02:28:17;;;;;;;0.50;0.50;;;;;;;8.13;100.00;94210.63;29395;528;63009;-67
2024/02/10 02:28:49;;;;;;;0.50;0.50;;;;;;;8.15;100.00;94210.28;29393;202;64008;-55
2024/02/10 02:29:20;;;;;;;0.50;0.50;;;;;;;8.14;100.00;94206.00;29395;415;63009;-55
2024/02/10 02:29:52;;;;;;;0.50;0.50;;;;;;;8.14;100.00;94209.50;29395;218;63005;-65
2024/02/10 02:30:24;;;;;;;0.50;0.50;;;;;;;8.13;100.00;94207.91;29395;254;63009;-67
2024/02/10 02:30:55;;;;;;;0.50;0.50;;;;;;;8.13;100.00;94207.91;29395;281;63005;-55
2024/02/10 02:31:28;;;;;;;0.50;0.50;;;;;;;8.14;100.00;94204.09;29395;439;63009;-55
2024/02/10 02:32:03;;;;;;;0.50;0.50;;;;;;;8.15;100.00;94199.47;29395;229;63005;-54
2024/02/10 02:32:34;;;;;;;0.60;0.60;;;;;;;8.14;100.00;94200.59;29395;306;63009;-66
2024/02/10 02:33:10;;;;;;;0.60;0.60;;;;;;;8.14;100.00;94189.81;29395;369;63005;-67
2024/02/10 02:33:41;;;;;;;0.60;0.60;;;;;;;8.14;100.00;94190.59;29395;243;63009;-54
2024/02/10 02:34:13;;;;;;;0.60;0.60;;;;;;;8.16;100.00;94195.66;29394;401;64009;-54
2024/02/10 02:34:46;;;;;;;0.50;0.50;;;;;;;8.16;100.00;94190.25;29395;202;63009;-55
2024/02/10 02:35:17;;;;;;;0.50;0.50;;;;;;;8.17;100.00;94191.81;29395;269;63004;-55
2024/02/10 02:35:50;;;;;;;0.50;0.50;;;;;;;8.16;100.00;94185.63;29395;243;63020;-55
2024/02/10 02:36:21;;;;;;;0.50;0.50;;;;;;;8.17;100.00;94191.81;29395;259;63018;-55
2024/02/10 02:36:53;;;;;;;0.50;0.50;;;;;;;8.15;100.00;94186.75;29395;295;63009;-55